Time;durP1;ratioP1;P1;durP2;ratioP2;P2;SDS_P1;SDS_P2;PMS_P1;PMS_P2;Temp;Humidity;BMP_temperature;BMP_pressure;BME280_temperature;BME280_humidity;BME280_pressure;Samples;Min_cycle;Max_cycle;Signal;HPM_P1;HPM_P2
2022/02/05 00:00:25;;;;;;;10.85;4.43;;;;;;;;;;5031657;28;20029;-37
2022/02/05 00:05:21;;;;;;;12.40;3.90;;;;;;;;;;5031186;28;20021;-37
2022/02/05 00:07:56;;;;;;;9.55;3.83;;;;;;;;;;5031327;28;20115;-37
2022/02/05 00:10:56;;;;;;;7.07;4.10;;;;;;;;;;5031396;28;20041;-37
2022/02/05 00:15:45;;;;;;;9.60;4.03;;;;;;;;;;5031326;28;20370;-37
2022/02/05 00:40:28;;;;;;;6.85;4.28;;;;;;;;;;5035240;28;20116;-37
2022/02/05 00:42:50;;;;;;;7.32;3.72;;;;;;;;;;5034802;28;20060;-37
2022/02/05 00:45:15;;;;;;;8.05;4.55;;;;;;;;;;5035145;28;20049;-37
2022/02/05 00:47:44;;;;;;;6.65;4.40;;;;;;;;;;5035217;28;20582;-37
2022/02/05 00:50:16;;;;;;;6.75;3.30;;;;;;;;;;5034933;28;20036;-37
2022/02/05 00:52:45;;;;;;;6.45;3.88;;;;;;;;;;5034885;28;20595;-37
2022/02/05 00:55:21;;;;;;;9.40;4.70;;;;;;;;;;5034946;28;20045;-37
2022/02/05 00:57:47;;;;;;;9.55;4.78;;;;;;;;;;5034811;28;20029;-38
2022/02/05 01:00:14;;;;;;;7.45;4.10;;;;;;;;;;5034843;28;20033;-37
2022/02/05 01:02:39;;;;;;;8.23;4.35;;;;;;;;;;5034873;28;20048;-37
2022/02/05 01:05:05;;;;;;;11.18;5.20;;;;;;;;;;5035214;28;20475;-37
2022/02/05 01:07:30;;;;;;;10.70;4.57;;;;;;;;;;5034986;28;20029;-38
2022/02/05 01:09:55;;;;;;;10.70;4.47;;;;;;;;;;5035130;28;20033;-37
2022/02/05 01:12:23;;;;;;;7.45;4.15;;;;;;;;;;5033705;28;20037;-37
2022/02/05 01:14:53;;;;;;;7.05;4.30;;;;;;;;;;5035280;28;20108;-37
2022/02/05 01:17:25;;;;;;;8.10;4.53;;;;;;;;;;5034786;28;20025;-38
2022/02/05 01:22:40;;;;;;;9.57;4.80;;;;;;;;;;5033581;28;20041;-37
2022/02/05 01:25:05;;;;;;;8.48;4.15;;;;;;;;;;5033635;28;20579;-37
2022/02/05 01:27:46;;;;;;;8.88;4.30;;;;;;;;;;5034994;28;20101;-37
2022/02/05 01:30:28;;;;;;;14.48;4.57;;;;;;;;;;5034727;28;20392;-37
2022/02/05 01:35:56;;;;;;;10.35;4.00;;;;;;;;;;5053602;28;20380;-37
2022/02/05 02:06:13;;;;;;;7.35;3.53;;;;;;;;;;5038703;28;20038;-37
2022/02/05 02:22:04;;;;;;;8.20;3.70;;;;;;;;;;5033718;28;20025;-37
2022/02/05 02:29:42;;;;;;;4.57;2.55;;;;;;;;;;5033735;28;20143;-37
2022/02/05 02:32:08;;;;;;;10.85;3.80;;;;;;;;;;5034088;28;20025;-37
2022/02/05 02:34:39;;;;;;;5.47;3.67;;;;;;;;;;5033682;28;20018;-37
2022/02/05 02:37:14;;;;;;;7.97;3.40;;;;;;;;;;5033779;28;20473;-37
2022/02/05 02:39:59;;;;;;;7.00;3.10;;;;;;;;;;5033713;28;20438;-37
2022/02/05 02:42:25;;;;;;;6.38;2.95;;;;;;;;;;5033136;28;20037;-37
2022/02/05 02:44:51;;;;;;;5.75;3.65;;;;;;;;;;5033347;28;20041;-37
2022/02/05 02:47:16;;;;;;;5.18;2.88;;;;;;;;;;5033380;28;20038;-37
2022/02/05 02:50:08;;;;;;;5.82;2.78;;;;;;;;;;5033321;28;20080;-37
2022/02/05 02:57:59;;;;;;;6.70;3.63;;;;;;;;;;5032738;28;20021;-37
2022/02/05 03:00:25;;;;;;;7.93;2.90;;;;;;;;;;5031644;28;20025;-37
2022/02/05 03:02:51;;;;;;;3.05;2.35;;;;;;;;;;5032898;28;20458;-37
2022/02/05 03:05:16;;;;;;;7.55;3.03;;;;;;;;;;5032936;28;20025;-37
2022/02/05 03:07:42;;;;;;;5.65;3.15;;;;;;;;;;5033464;28;20052;-37
2022/02/05 03:10:07;;;;;;;7.38;2.60;;;;;;;;;;5032610;28;20352;-37
2022/02/05 03:12:35;;;;;;;6.55;3.13;;;;;;;;;;5032677;28;20091;-37
2022/02/05 03:15:00;;;;;;;3.80;2.72;;;;;;;;;;5033018;28;20025;-37
2022/02/05 03:17:32;;;;;;;8.50;3.03;;;;;;;;;;5032556;28;20369;-37
2022/02/05 03:19:58;;;;;;;3.80;2.70;;;;;;;;;;5032589;28;20037;-37
2022/02/05 03:22:24;;;;;;;5.65;3.10;;;;;;;;;;5032566;28;20022;-37
2022/02/05 03:24:50;;;;;;;6.30;3.42;;;;;;;;;;5032404;28;20032;-37
2022/02/05 03:27:17;;;;;;;6.93;3.22;;;;;;;;;;5032746;28;20155;-37
2022/02/05 03:29:46;;;;;;;5.68;2.78;;;;;;;;;;5032327;28;20041;-37
2022/02/05 03:32:11;;;;;;;6.50;3.25;;;;;;;;;;5031012;28;20021;-37
2022/02/05 03:34:37;;;;;;;5.05;3.55;;;;;;;;;;5032718;28;20415;-37
2022/02/05 03:37:03;;;;;;;7.28;3.22;;;;;;;;;;5032574;28;20052;-37
2022/02/05 03:39:28;;;;;;;8.70;3.70;;;;;;;;;;5032349;28;20387;-37
2022/02/05 03:41:54;;;;;;;5.10;2.97;;;;;;;;;;5032146;28;20120;-37
2022/02/05 03:44:19;;;;;;;5.28;2.92;;;;;;;;;;5032156;28;20105;-37
2022/02/05 03:46:45;;;;;;;3.85;3.17;;;;;;;;;;5030936;28;20029;-37
2022/02/05 03:49:14;;;;;;;8.00;3.60;;;;;;;;;;5032207;28;20029;-37
2022/02/05 03:51:39;;;;;;;5.60;3.03;;;;;;;;;;5032105;28;20099;-37
2022/02/05 03:54:05;;;;;;;13.25;3.42;;;;;;;;;;5032373;28;20025;-37
2022/02/05 03:56:30;;;;;;;3.83;2.65;;;;;;;;;;5031954;28;20072;-37
2022/02/05 03:58:56;;;;;;;9.55;3.40;;;;;;;;;;5032298;28;20056;-37
2022/02/05 04:01:21;;;;;;;7.03;3.35;;;;;;;;;;5031847;28;20491;-38
2022/02/05 04:03:46;;;;;;;9.90;2.53;;;;;;;;;;5031950;28;20040;-37
2022/02/05 04:06:12;;;;;;;6.10;2.78;;;;;;;;;;5032407;28;20021;-37
2022/02/05 04:08:38;;;;;;;9.20;2.63;;;;;;;;;;5032122;28;20033;-37
2022/02/05 04:11:29;;;;;;;4.93;3.10;;;;;;;;;;5031323;28;20410;-38
2022/02/05 04:16:38;;;;;;;7.18;2.88;;;;;;;;;;5032120;28;20188;-37
2022/02/05 04:19:04;;;;;;;7.00;2.78;;;;;;;;;;5031756;28;20503;-38
2022/02/05 04:21:31;;;;;;;11.43;2.78;;;;;;;;;;5031965;28;20025;-37
2022/02/05 04:23:58;;;;;;;5.18;2.67;;;;;;;;;;5032029;28;20022;-37
2022/02/05 04:26:23;;;;;;;5.85;2.80;;;;;;;;;;5031934;28;20060;-37
2022/02/05 04:28:49;;;;;;;5.70;2.75;;;;;;;;;;5031544;28;20057;-37
2022/02/05 04:31:14;;;;;;;6.75;3.35;;;;;;;;;;5031774;28;20034;-37
2022/02/05 04:33:39;;;;;;;4.65;3.00;;;;;;;;;;5031992;28;20033;-37
2022/02/05 04:36:06;;;;;;;4.90;3.20;;;;;;;;;;5031598;28;20033;-37
2022/02/05 04:38:32;;;;;;;5.70;2.22;;;;;;;;;;5031503;28;20028;-38
2022/02/05 04:41:07;;;;;;;4.97;2.50;;;;;;;;;;5031530;28;20033;-37
2022/02/05 04:52:09;;;;;;;7.68;3.47;;;;;;;;;;5031795;28;20384;-37
2022/02/05 05:08:08;;;;;;;4.18;2.72;;;;;;;;;;5031273;28;20041;-38
2022/02/05 05:15:13;;;;;;;6.60;2.60;;;;;;;;;;5030045;28;20068;-37
2022/02/05 05:21:23;;;;;;;3.25;2.45;;;;;;;;;;5032758;28;20041;-37
2022/02/05 05:23:48;;;;;;;6.40;3.35;;;;;;;;;;5035096;28;20021;-37
2022/02/05 05:26:13;;;;;;;4.57;2.53;;;;;;;;;;5034705;28;20408;-37
2022/02/05 05:28:39;;;;;;;4.25;2.10;;;;;;;;;;5034967;28;20446;-37
2022/02/05 05:31:04;;;;;;;10.35;3.72;;;;;;;;;;5034852;28;20025;-37
2022/02/05 05:33:29;;;;;;;6.82;2.80;;;;;;;;;;5033635;28;20387;-37
2022/02/05 05:35:55;;;;;;;5.13;2.72;;;;;;;;;;5034674;28;20032;-37
2022/02/05 05:38:21;;;;;;;7.18;2.83;;;;;;;;;;5034473;28;20029;-37
2022/02/05 05:40:46;;;;;;;8.30;3.03;;;;;;;;;;5034548;28;20033;-37
2022/02/05 05:43:35;;;;;;;5.22;3.30;;;;;;;;;;5034343;28;20415;-37
2022/02/05 05:46:14;;;;;;;3.30;2.70;;;;;;;;;;5034679;28;20041;-37
2022/02/05 05:51:18;;;;;;;9.13;3.25;;;;;;;;;;5034194;28;20037;-37
2022/02/05 05:53:43;;;;;;;6.05;2.60;;;;;;;;;;5034260;28;20018;-37
2022/02/05 05:56:09;;;;;;;4.22;2.58;;;;;;;;;;5034533;28;20025;-37
2022/02/05 05:58:34;;;;;;;7.10;2.90;;;;;;;;;;5034461;28;20045;-37
2022/02/05 06:01:00;;;;;;;4.82;2.83;;;;;;;;;;5034086;28;20527;-37
2022/02/05 06:03:26;;;;;;;3.15;2.40;;;;;;;;;;5034076;28;20025;-37
2022/02/05 06:05:51;;;;;;;4.47;3.03;;;;;;;;;;5034413;28;20091;-37
2022/02/05 06:08:18;;;;;;;6.70;3.00;;;;;;;;;;5033889;28;20032;-37
2022/02/05 06:10:44;;;;;;;4.15;2.42;;;;;;;;;;5033865;28;20093;-37
2022/02/05 06:13:10;;;;;;;6.05;2.50;;;;;;;;;;5033981;28;20017;-37
2022/02/05 06:15:37;;;;;;;6.18;2.85;;;;;;;;;;5033994;28;20034;-37
2022/02/05 06:18:03;;;;;;;7.97;3.17;;;;;;;;;;5033913;28;20394;-37
2022/02/05 06:20:29;;;;;;;6.45;4.32;;;;;;;;;;5033996;28;20067;-37
2022/02/05 06:22:54;;;;;;;6.47;3.05;;;;;;;;;;5033650;28;20020;-37
2022/02/05 06:25:20;;;;;;;8.93;2.95;;;;;;;;;;5033936;28;20026;-37
2022/02/05 06:27:46;;;;;;;12.10;2.70;;;;;;;;;;5033874;28;20135;-37
2022/02/05 06:30:12;;;;;;;7.53;3.70;;;;;;;;;;5033422;28;20041;-37
2022/02/05 06:32:37;;;;;;;7.05;4.20;;;;;;;;;;5033000;28;20022;-37
2022/02/05 06:35:03;;;;;;;4.00;2.85;;;;;;;;;;5033769;28;20124;-37
2022/02/05 06:37:28;;;;;;;7.55;3.30;;;;;;;;;;5033628;28;20025;-37
2022/02/05 06:39:54;;;;;;;8.30;3.20;;;;;;;;;;5033410;28;20080;-37
2022/02/05 06:42:19;;;;;;;10.77;3.20;;;;;;;;;;5033071;28;20587;-37
2022/02/05 06:44:45;;;;;;;4.55;3.25;;;;;;;;;;5033320;28;20120;-37
2022/02/05 06:47:10;;;;;;;6.00;2.97;;;;;;;;;;5033266;28;20069;-37
2022/02/05 06:49:36;;;;;;;3.90;2.90;;;;;;;;;;5032996;28;20128;-37
2022/02/05 06:52:02;;;;;;;5.65;3.30;;;;;;;;;;5033275;28;20018;-37
2022/02/05 06:54:28;;;;;;;6.18;2.60;;;;;;;;;;5033259;28;20443;-37
2022/02/05 06:56:53;;;;;;;5.78;2.88;;;;;;;;;;5033436;28;20044;-37
2022/02/05 06:59:18;;;;;;;6.18;3.40;;;;;;;;;;5032902;28;20029;-38
2022/02/05 07:01:44;;;;;;;5.20;2.88;;;;;;;;;;5033304;28;20036;-37
2022/02/05 07:04:09;;;;;;;8.65;4.05;;;;;;;;;;5032861;28;20442;-37
2022/02/05 07:06:35;;;;;;;7.88;3.88;;;;;;;;;;5033349;28;20029;-37
2022/02/05 07:09:03;;;;;;;10.45;4.05;;;;;;;;;;5033045;28;20456;-37
2022/02/05 07:11:29;;;;;;;4.25;2.92;;;;;;;;;;5032644;28;20017;-38
2022/02/05 07:13:56;;;;;;;4.47;2.95;;;;;;;;;;5032763;28;20041;-37
2022/02/05 07:16:29;;;;;;;9.88;2.60;;;;;;;;;;5032739;28;20118;-37
2022/02/05 07:21:30;;;;;;;7.50;3.47;;;;;;;;;;5032863;28;20163;-37
2022/02/05 07:29:16;;;;;;;11.77;3.90;;;;;;;;;;5032370;28;20484;-37
2022/02/05 07:31:46;;;;;;;4.78;3.38;;;;;;;;;;5032751;28;20036;-37
2022/02/05 07:34:12;;;;;;;5.35;3.60;;;;;;;;;;5032403;28;20032;-37
2022/02/05 07:36:38;;;;;;;6.03;3.65;;;;;;;;;;5032400;28;20033;-37
2022/02/05 07:39:06;;;;;;;5.03;3.53;;;;;;;;;;5032653;28;20047;-37
2022/02/05 07:41:31;;;;;;;5.72;3.45;;;;;;;;;;5030750;28;20069;-37
2022/02/05 07:43:57;;;;;;;7.65;4.70;;;;;;;;;;5032448;28;20478;-37
2022/02/05 07:46:23;;;;;;;3.95;2.95;;;;;;;;;;5032112;28;20018;-37
2022/02/05 07:48:49;;;;;;;6.72;2.58;;;;;;;;;;5032046;28;20079;-37
2022/02/05 07:51:14;;;;;;;4.72;3.05;;;;;;;;;;5032182;28;20029;-37
2022/02/05 07:53:40;;;;;;;8.60;3.60;;;;;;;;;;5031985;28;20076;-37
2022/02/05 07:56:05;;;;;;;6.47;2.85;;;;;;;;;;5032142;28;20055;-37
2022/02/05 07:58:32;;;;;;;6.68;3.30;;;;;;;;;;5032187;28;20056;-37
2022/02/05 08:00:57;;;;;;;3.80;2.40;;;;;;;;;;5032248;28;20017;-37
2022/02/05 08:03:23;;;;;;;6.50;2.97;;;;;;;;;;5031856;28;20056;-37
2022/02/05 08:05:48;;;;;;;9.43;2.97;;;;;;;;;;5032003;28;20055;-37
2022/02/05 08:08:18;;;;;;;6.88;3.60;;;;;;;;;;5031874;28;20107;-37
2022/02/05 08:10:53;;;;;;;7.43;3.45;;;;;;;;;;5031696;28;20026;-37
2022/02/05 08:13:20;;;;;;;7.72;3.60;;;;;;;;;;5032130;28;20033;-37
2022/02/05 08:15:52;;;;;;;11.23;3.60;;;;;;;;;;5031741;28;20025;-37
2022/02/05 08:18:18;;;;;;;9.10;3.70;;;;;;;;;;5031982;28;20025;-37
2022/02/05 08:20:43;;;;;;;5.25;3.53;;;;;;;;;;5031750;28;20523;-37
2022/02/05 08:23:09;;;;;;;6.85;2.85;;;;;;;;;;5030482;28;20033;-37
2022/02/05 08:25:35;;;;;;;10.77;3.00;;;;;;;;;;5030421;28;20397;-37
2022/02/05 08:28:01;;;;;;;7.40;3.47;;;;;;;;;;5031691;28;20380;-38
2022/02/05 08:30:26;;;;;;;12.25;5.40;;;;;;;;;;5031496;28;20060;-37
2022/02/05 08:32:52;;;;;;;4.88;2.85;;;;;;;;;;5031982;28;20033;-37
2022/02/05 08:35:21;;;;;;;7.40;3.00;;;;;;;;;;5031522;28;20021;-37
2022/02/05 08:37:48;;;;;;;9.80;3.72;;;;;;;;;;5031861;28;20028;-37
2022/02/05 08:40:14;;;;;;;7.90;3.35;;;;;;;;;;5031514;28;20472;-37
2022/02/05 08:42:40;;;;;;;5.93;3.40;;;;;;;;;;5030072;28;20424;-37
2022/02/05 08:45:06;;;;;;;8.52;5.18;;;;;;;;;;5031447;28;20064;-37
2022/02/05 08:47:32;;;;;;;5.03;3.08;;;;;;;;;;5031471;28;20456;-37
2022/02/05 08:49:57;;;;;;;4.63;3.25;;;;;;;;;;5031693;28;20060;-37
2022/02/05 08:52:23;;;;;;;6.78;3.35;;;;;;;;;;5031575;28;20468;-37
2022/02/05 08:54:49;;;;;;;8.95;4.30;;;;;;;;;;5031534;28;20056;-37
2022/02/05 08:57:15;;;;;;;8.05;4.05;;;;;;;;;;5034299;28;20372;-37
2022/02/05 08:59:55;;;;;;;14.23;4.82;;;;;;;;;;5033862;28;20534;-37
2022/02/05 09:02:35;;;;;;;8.65;3.92;;;;;;;;;;5035196;28;20522;-37
2022/02/05 09:07:26;;;;;;;3.33;2.70;;;;;;;;;;5035330;28;20036;-37
2022/02/05 09:14:58;;;;;;;11.38;4.43;;;;;;;;;;5034981;28;20482;-37
2022/02/05 09:17:23;;;;;;;6.32;3.72;;;;;;;;;;5035199;28;20033;-37
2022/02/05 09:19:50;;;;;;;5.55;2.70;;;;;;;;;;5035125;28;20029;-37
2022/02/05 09:22:15;;;;;;;6.43;4.18;;;;;;;;;;5035154;28;20108;-37
2022/02/05 09:24:41;;;;;;;17.45;4.03;;;;;;;;;;5034769;28;20113;-37
2022/02/05 09:27:10;;;;;;;6.90;4.28;;;;;;;;;;5034741;28;20459;-37
2022/02/05 09:32:21;;;;;;;8.88;2.63;;;;;;;;;;5034624;28;20057;-37
2022/02/05 09:34:48;;;;;;;11.60;3.50;;;;;;;;;;5034628;28;20064;-37
2022/02/05 09:37:14;;;;;;;7.35;3.38;;;;;;;;;;5034663;28;20026;-37
2022/02/05 09:39:39;;;;;;;7.20;3.42;;;;;;;;;;5034520;28;20022;-37
2022/02/05 09:42:05;;;;;;;5.40;3.15;;;;;;;;;;5034444;28;20107;-37
2022/02/05 09:44:31;;;;;;;13.65;5.60;;;;;;;;;;5034457;28;20041;-37
2022/02/05 09:47:00;;;;;;;4.35;2.80;;;;;;;;;;5034464;28;20114;-37
2022/02/05 09:49:26;;;;;;;5.32;3.55;;;;;;;;;;5034143;28;20468;-37
2022/02/05 09:52:11;;;;;;;8.57;4.57;;;;;;;;;;5034433;28;20135;-37
2022/02/05 09:54:38;;;;;;;6.65;3.65;;;;;;;;;;5034170;28;20037;-37
2022/02/05 09:57:04;;;;;;;6.30;3.42;;;;;;;;;;5034292;28;20021;-37
2022/02/05 09:59:37;;;;;;;8.88;4.38;;;;;;;;;;5034403;28;20482;-37
2022/02/05 10:02:23;;;;;;;8.63;4.28;;;;;;;;;;5034144;28;20029;-37
2022/02/05 10:05:05;;;;;;;7.28;3.72;;;;;;;;;;5033656;28;20038;-37
2022/02/05 10:07:31;;;;;;;5.20;3.33;;;;;;;;;;5032748;28;20106;-37
2022/02/05 10:10:01;;;;;;;6.85;4.07;;;;;;;;;;5033895;28;20068;-37
2022/02/05 10:12:28;;;;;;;6.05;3.95;;;;;;;;;;5033889;28;20037;-37
2022/02/05 10:14:56;;;;;;;6.78;3.08;;;;;;;;;;5033975;28;20542;-37
2022/02/05 10:17:38;;;;;;;7.60;3.78;;;;;;;;;;5034078;28;20100;-37
2022/02/05 10:20:04;;;;;;;6.70;3.58;;;;;;;;;;5034114;28;20033;-37
2022/02/05 10:22:38;;;;;;;7.70;3.45;;;;;;;;;;5033763;28;20017;-37
2022/02/05 10:25:13;;;;;;;13.82;3.85;;;;;;;;;;5034062;28;20033;-37
2022/02/05 10:27:40;;;;;;;5.22;3.08;;;;;;;;;;5033944;28;20630;-37
2022/02/05 10:30:10;;;;;;;5.90;3.65;;;;;;;;;;5033460;28;20060;-37
2022/02/05 10:32:41;;;;;;;8.20;3.42;;;;;;;;;;5033511;28;20025;-37
2022/02/05 10:35:22;;;;;;;7.10;3.05;;;;;;;;;;5033822;28;20044;-37
2022/02/05 10:38:03;;;;;;;5.85;3.08;;;;;;;;;;5033521;28;20041;-37
2022/02/05 10:41:02;;;;;;;5.25;3.35;;;;;;;;;;5033362;28;20030;-37
2022/02/05 10:43:31;;;;;;;11.52;3.92;;;;;;;;;;5033047;28;20049;-37
2022/02/05 10:45:57;;;;;;;5.20;3.83;;;;;;;;;;5033241;28;20034;-37
2022/02/05 10:48:23;;;;;;;8.32;4.00;;;;;;;;;;5032041;28;20029;-37
2022/02/05 10:50:55;;;;;;;5.90;2.85;;;;;;;;;;5033457;28;20488;-37
2022/02/05 10:53:29;;;;;;;3.45;2.80;;;;;;;;;;5033295;28;20060;-37
2022/02/05 10:59:16;;;;;;;4.05;2.97;;;;;;;;;;5033046;28;20384;-37
2022/02/05 11:07:04;;;;;;;6.90;3.15;;;;;;;;;;5032909;28;20450;-37
2022/02/05 11:09:32;;;;;;;5.07;2.95;;;;;;;;;;5032654;28;20403;-37
2022/02/05 11:20:18;;;;;;;4.35;2.67;;;;;;;;;;5032331;28;20112;-37
2022/02/05 11:22:48;;;;;;;4.72;2.72;;;;;;;;;;5032828;28;20112;-37
2022/02/05 11:25:15;;;;;;;7.10;3.30;;;;;;;;;;5032655;28;20026;-37
2022/02/05 11:27:46;;;;;;;8.65;2.95;;;;;;;;;;5032715;28;20438;-38
2022/02/05 11:30:27;;;;;;;3.50;3.20;;;;;;;;;;5032619;28;20476;-37
2022/02/05 11:32:54;;;;;;;9.25;3.00;;;;;;;;;;5032507;28;20087;-38
2022/02/05 11:35:30;;;;;;;11.73;3.38;;;;;;;;;;5032392;28;20460;-37
2022/02/05 11:37:57;;;;;;;3.25;2.28;;;;;;;;;;5032349;28;20034;-37
2022/02/05 11:40:49;;;;;;;4.35;2.30;;;;;;;;;;5032536;28;20072;-37
2022/02/05 11:43:23;;;;;;;10.68;3.08;;;;;;;;;;5031732;28;20046;-37
2022/02/05 11:46:04;;;;;;;8.10;2.95;;;;;;;;;;5031052;28;20029;-37
2022/02/05 11:48:38;;;;;;;4.97;2.63;;;;;;;;;;5032190;28;20427;-37
2022/02/05 11:51:26;;;;;;;5.10;3.28;;;;;;;;;;5032411;28;20037;-37
2022/02/05 11:53:58;;;;;;;4.40;2.47;;;;;;;;;;5032226;28;20036;-36
2022/02/05 11:57:01;;;;;;;5.57;3.17;;;;;;;;;;5032210;28;20419;-37
2022/02/05 11:59:30;;;;;;;8.85;3.63;;;;;;;;;;5032167;28;20065;-37
2022/02/05 12:02:18;;;;;;;5.95;2.20;;;;;;;;;;5032076;28;20021;-37
2022/02/05 12:04:45;;;;;;;6.18;2.60;;;;;;;;;;5032196;28;20029;-37
2022/02/05 12:07:12;;;;;;;9.27;2.80;;;;;;;;;;5032373;28;20030;-37
2022/02/05 12:09:38;;;;;;;5.53;2.45;;;;;;;;;;5031584;28;20033;-37
2022/02/05 12:12:22;;;;;;;5.30;2.85;;;;;;;;;;5032136;28;20087;-37
2022/02/05 12:15:07;;;;;;;3.20;1.80;;;;;;;;;;5031777;28;20053;-37
2022/02/05 12:18:04;;;;;;;3.30;2.08;;;;;;;;;;5031673;28;20029;-37
2022/02/05 12:20:33;;;;;;;8.65;2.92;;;;;;;;;;5030634;28;20451;-37
2022/02/05 12:23:17;;;;;;;2.53;2.00;;;;;;;;;;5031822;28;20018;-37
2022/02/05 12:26:02;;;;;;;3.65;2.22;;;;;;;;;;5031692;28;20029;-37
2022/02/05 12:28:40;;;;;;;8.13;2.65;;;;;;;;;;5031601;28;20037;-37
2022/02/05 12:31:18;;;;;;;2.70;1.98;;;;;;;;;;5032504;28;20499;-37
2022/02/05 12:33:54;;;;;;;4.97;3.15;;;;;;;;;;5036088;28;20036;-37
2022/02/05 12:36:29;;;;;;;3.90;2.15;;;;;;;;;;5036051;28;20083;-37
2022/02/05 12:38:55;;;;;;;5.50;2.40;;;;;;;;;;5035887;28;20029;-37
2022/02/05 12:41:22;;;;;;;3.50;2.28;;;;;;;;;;5035776;28;20240;-37
2022/02/05 12:44:01;;;;;;;2.05;1.55;;;;;;;;;;5035709;28;20496;-37
2022/02/05 12:46:29;;;;;;;3.03;1.63;;;;;;;;;;5035419;28;20087;-38
2022/02/05 12:49:01;;;;;;;8.05;2.95;;;;;;;;;;5035553;28;20036;-37
2022/02/05 12:51:28;;;;;;;6.00;1.98;;;;;;;;;;5035389;28;20124;-37
2022/02/05 12:54:04;;;;;;;5.15;3.33;;;;;;;;;;5035729;28;20353;-37
2022/02/05 12:56:40;;;;;;;9.20;2.67;;;;;;;;;;5035344;28;20467;-37
2022/02/05 12:59:11;;;;;;;3.97;2.97;;;;;;;;;;5035668;28;20109;-37
2022/02/05 13:01:38;;;;;;;5.68;2.40;;;;;;;;;;5035413;28;20033;-37
2022/02/05 13:04:10;;;;;;;4.28;2.85;;;;;;;;;;5035281;28;20476;-37
2022/02/05 13:06:36;;;;;;;3.20;2.37;;;;;;;;;;5035510;28;20041;-37
2022/02/05 13:09:02;;;;;;;4.00;2.20;;;;;;;;;;5035025;28;20078;-37
2022/02/05 13:11:30;;;;;;;14.82;2.72;;;;;;;;;;5035270;28;20075;-37
2022/02/05 13:13:56;;;;;;;2.65;2.10;;;;;;;;;;5035077;28;20013;-37
2022/02/05 13:16:35;;;;;;;5.90;2.78;;;;;;;;;;5035409;28;20026;-37
2022/02/05 13:19:14;;;;;;;5.53;2.40;;;;;;;;;;5034918;28;20112;-37
2022/02/05 13:24:59;;;;;;;5.35;2.53;;;;;;;;;;5035168;28;20022;-37
2022/02/05 13:27:41;;;;;;;5.32;3.10;;;;;;;;;;5034826;28;20040;-37
2022/02/05 13:35:58;;;;;;;6.20;3.45;;;;;;;;;;5034889;28;20407;-37
2022/02/05 13:38:25;;;;;;;9.52;3.72;;;;;;;;;;5034724;28;20036;-37
2022/02/05 13:41:01;;;;;;;7.47;3.10;;;;;;;;;;5034904;28;20367;-38
2022/02/05 13:43:40;;;;;;;7.05;3.55;;;;;;;;;;5034091;28;20048;-37
2022/02/05 13:46:10;;;;;;;6.95;3.55;;;;;;;;;;5034887;28;20029;-37
2022/02/05 13:48:36;;;;;;;4.47;2.92;;;;;;;;;;5034332;28;20053;-37
2022/02/05 13:51:04;;;;;;;4.82;3.20;;;;;;;;;;5033123;28;20037;-37
2022/02/05 13:53:33;;;;;;;7.05;4.32;;;;;;;;;;5034647;28;20044;-37
2022/02/05 13:56:06;;;;;;;5.82;3.50;;;;;;;;;;5034370;28;20030;-37
2022/02/05 13:58:39;;;;;;;16.08;4.18;;;;;;;;;;5034123;28;20119;-38
2022/02/05 14:01:05;;;;;;;6.13;3.95;;;;;;;;;;5034259;28;20099;-37
2022/02/05 14:03:32;;;;;;;6.85;3.97;;;;;;;;;;5034143;28;20456;-37
2022/02/05 14:06:11;;;;;;;11.50;4.22;;;;;;;;;;5034231;28;20021;-37
2022/02/05 14:08:40;;;;;;;12.05;4.60;;;;;;;;;;5033943;28;20037;-37
2022/02/05 14:11:07;;;;;;;8.13;3.00;;;;;;;;;;5033900;28;20041;-37
2022/02/05 14:13:51;;;;;;;6.32;3.28;;;;;;;;;;5033898;28;20551;-37
2022/02/05 14:16:27;;;;;;;8.82;3.97;;;;;;;;;;5034313;28;20040;-37
2022/02/05 14:18:55;;;;;;;8.93;4.22;;;;;;;;;;5034023;28;20022;-37
2022/02/05 14:21:32;;;;;;;10.00;3.65;;;;;;;;;;5033824;28;20041;-37
2022/02/05 14:23:58;;;;;;;7.60;4.35;;;;;;;;;;5033768;28;20480;-37
2022/02/05 14:26:35;;;;;;;6.32;4.00;;;;;;;;;;5033705;28;20461;-37
2022/02/05 14:29:10;;;;;;;9.02;4.43;;;;;;;;;;5033573;28;20105;-37
2022/02/05 14:34:15;;;;;;;7.03;3.25;;;;;;;;;;5032214;28;20112;-37
2022/02/05 14:42:00;;;;;;;9.07;3.50;;;;;;;;;;5033252;28;20037;-37
2022/02/05 14:44:26;;;;;;;7.38;4.60;;;;;;;;;;5032161;28;20032;-37
2022/02/05 14:46:57;;;;;;;8.27;3.60;;;;;;;;;;5033339;28;20036;-37
2022/02/05 14:49:23;;;;;;;8.07;4.45;;;;;;;;;;5033153;28;20083;-37
2022/02/05 14:51:50;;;;;;;11.98;5.20;;;;;;;;;;5033286;28;20021;-37
2022/02/05 14:54:16;;;;;;;4.97;3.58;;;;;;;;;;5032479;28;20065;-37
2022/02/05 14:56:42;;;;;;;15.30;6.28;;;;;;;;;;5033218;28;20017;-37
2022/02/05 14:59:08;;;;;;;11.43;4.32;;;;;;;;;;5033464;28;20056;-37
2022/02/05 15:01:35;;;;;;;5.40;3.30;;;;;;;;;;5033226;28;20104;-37
2022/02/05 15:04:01;;;;;;;5.75;3.63;;;;;;;;;;5033387;28;20544;-37
2022/02/05 15:06:29;;;;;;;10.10;3.55;;;;;;;;;;5032970;28;20116;-38
2022/02/05 15:08:57;;;;;;;9.60;4.60;;;;;;;;;;5033163;28;20026;-37
2022/02/05 15:11:24;;;;;;;7.55;4.95;;;;;;;;;;5032926;28;20060;-37
2022/02/05 15:13:52;;;;;;;13.10;4.05;;;;;;;;;;5033136;28;20064;-37
2022/02/05 15:16:18;;;;;;;13.32;5.47;;;;;;;;;;5032729;28;20125;-37
2022/02/05 15:18:57;;;;;;;6.72;3.80;;;;;;;;;;5032665;28;20136;-37
2022/02/05 15:21:24;;;;;;;4.88;3.65;;;;;;;;;;5032797;28;20064;-37
2022/02/05 15:23:49;;;;;;;8.65;3.88;;;;;;;;;;5032565;28;20022;-37
2022/02/05 15:26:16;;;;;;;5.45;3.42;;;;;;;;;;5032554;28;20037;-37
2022/02/05 15:28:46;;;;;;;10.18;4.30;;;;;;;;;;5032415;28;20053;-38
2022/02/05 15:31:11;;;;;;;11.05;5.03;;;;;;;;;;5032469;28;20091;-37
2022/02/05 15:33:46;;;;;;;11.68;5.40;;;;;;;;;;5031173;28;20356;-37
2022/02/05 15:36:15;;;;;;;7.93;3.78;;;;;;;;;;5032659;28;20120;-37
2022/02/05 15:39:04;;;;;;;10.95;4.25;;;;;;;;;;5032352;28;20052;-37
2022/02/05 15:44:15;;;;;;;9.55;4.03;;;;;;;;;;5032238;28;20090;-37
2022/02/05 15:46:41;;;;;;;8.20;3.15;;;;;;;;;;5032173;28;20057;-37
2022/02/05 15:49:07;;;;;;;7.60;3.33;;;;;;;;;;5032300;28;20045;-38
2022/02/05 15:51:32;;;;;;;7.20;3.30;;;;;;;;;;5032028;28;20442;-37
2022/02/05 15:54:04;;;;;;;12.30;4.00;;;;;;;;;;5032268;28;20033;-38
2022/02/05 15:59:01;;;;;;;11.40;4.95;;;;;;;;;;5032093;28;20018;-37
2022/02/05 16:01:27;;;;;;;8.57;4.18;;;;;;;;;;5032267;28;20472;-38
2022/02/05 16:03:53;;;;;;;8.55;3.88;;;;;;;;;;5032067;28;20032;-37
2022/02/05 16:06:22;;;;;;;7.95;4.32;;;;;;;;;;5031874;28;20095;-37
2022/02/05 16:08:47;;;;;;;12.43;4.97;;;;;;;;;;5031827;28;20049;-37
2022/02/05 16:11:17;;;;;;;9.35;3.00;;;;;;;;;;5032082;28;20041;-37
2022/02/05 16:13:46;;;;;;;11.55;3.42;;;;;;;;;;5031779;28;20030;-37
2022/02/05 16:16:12;;;;;;;8.90;4.25;;;;;;;;;;5032135;28;20037;-37
2022/02/05 16:18:38;;;;;;;6.70;3.85;;;;;;;;;;5031916;28;20020;-37
2022/02/05 16:21:03;;;;;;;6.25;3.60;;;;;;;;;;5031986;28;20145;-37
2022/02/05 16:23:29;;;;;;;7.25;3.60;;;;;;;;;;5031756;28;20104;-37
2022/02/05 16:25:55;;;;;;;9.93;3.28;;;;;;;;;;5032010;28;20029;-37
2022/02/05 16:28:21;;;;;;;11.82;4.20;;;;;;;;;;5031948;28;20464;-37
2022/02/05 16:30:51;;;;;;;6.53;3.58;;;;;;;;;;5031809;28;20049;-37
2022/02/05 16:33:20;;;;;;;11.50;3.95;;;;;;;;;;5031623;28;20120;-37
2022/02/05 16:35:48;;;;;;;7.43;3.22;;;;;;;;;;5031914;28;20095;-37
2022/02/05 16:38:19;;;;;;;5.65;3.10;;;;;;;;;;5031814;28;20029;-37
2022/02/05 16:40:46;;;;;;;11.50;3.97;;;;;;;;;;5031532;28;20072;-37
2022/02/05 16:43:12;;;;;;;7.15;4.15;;;;;;;;;;5031412;28;20444;-37
2022/02/05 16:45:38;;;;;;;8.60;3.78;;;;;;;;;;5031794;28;20109;-37
2022/02/05 16:48:05;;;;;;;8.27;4.32;;;;;;;;;;5031421;28;20040;-37
2022/02/05 16:50:31;;;;;;;5.18;4.15;;;;;;;;;;5030407;28;20084;-37
2022/02/05 16:53:02;;;;;;;6.53;3.10;;;;;;;;;;5031923;28;20029;-37
2022/02/05 16:55:30;;;;;;;16.35;3.80;;;;;;;;;;5031335;28;20514;-37
2022/02/05 16:57:55;;;;;;;6.88;3.63;;;;;;;;;;5031563;28;20273;-37
2022/02/05 17:00:21;;;;;;;10.18;4.45;;;;;;;;;;5031492;28;20104;-37
2022/02/05 17:02:49;;;;;;;4.20;2.70;;;;;;;;;;5030016;28;20537;-37
2022/02/05 17:05:16;;;;;;;6.28;3.72;;;;;;;;;;5031521;28;20036;-37
2022/02/05 17:07:42;;;;;;;8.05;3.83;;;;;;;;;;5029969;28;20502;-37
2022/02/05 17:10:08;;;;;;;6.97;3.47;;;;;;;;;;5031428;28;20121;-37
2022/02/05 17:12:34;;;;;;;5.43;4.00;;;;;;;;;;5031248;28;20049;-37
2022/02/05 17:15:03;;;;;;;7.63;4.90;;;;;;;;;;5031412;28;20076;-38
2022/02/05 17:17:34;;;;;;;11.68;4.47;;;;;;;;;;5032743;28;20030;-37
2022/02/05 17:20:00;;;;;;;6.05;3.33;;;;;;;;;;5035354;28;20264;-38
2022/02/05 17:22:28;;;;;;;7.05;4.28;;;;;;;;;;5035065;28;20468;-37
2022/02/05 17:24:54;;;;;;;19.13;4.60;;;;;;;;;;5034878;28;20057;-37
2022/02/05 17:27:23;;;;;;;9.60;4.45;;;;;;;;;;5034882;28;20067;-37
2022/02/05 17:29:50;;;;;;;8.88;4.32;;;;;;;;;;5034619;28;20038;-37
2022/02/05 17:32:16;;;;;;;8.05;4.40;;;;;;;;;;5035034;28;20032;-37
2022/02/05 17:34:46;;;;;;;9.48;4.63;;;;;;;;;;5035000;28;20120;-37
2022/02/05 17:37:13;;;;;;;11.18;4.28;;;;;;;;;;5034624;28;20052;-37
2022/02/05 17:39:42;;;;;;;10.40;5.60;;;;;;;;;;5034869;28;20032;-37
2022/02/05 17:42:08;;;;;;;6.15;4.65;;;;;;;;;;5033873;28;20045;-37
2022/02/05 17:44:37;;;;;;;10.68;5.65;;;;;;;;;;5034425;28;20108;-37
2022/02/05 17:47:05;;;;;;;13.05;5.97;;;;;;;;;;5034463;28;20026;-37
2022/02/05 17:49:35;;;;;;;7.18;4.60;;;;;;;;;;5034228;28;20033;-37